sensor_id;sensor_type;location;lat;lon;timestamp;temperature;humidity
10231;DHT22;62604;49.432;8.680;2023-03-01T00:01:28;1.60;48.30
10231;DHT22;62604;49.432;8.680;2023-03-01T00:03:57;1.50;48.90
10231;DHT22;62604;49.432;8.680;2023-03-01T00:06:26;1.50;48.90
10231;DHT22;62604;49.432;8.680;2023-03-01T00:08:53;1.50;49.50
10231;DHT22;62604;49.432;8.680;2023-03-01T00:11:21;1.50;49.10
10231;DHT22;62604;49.432;8.680;2023-03-01T00:13:50;1.50;49.50
10231;DHT22;62604;49.432;8.680;2023-03-01T00:16:19;1.50;50.20
10231;DHT22;62604;49.432;8.680;2023-03-01T00:18:47;1.40;50.40
10231;DHT22;62604;49.432;8.680;2023-03-01T00:21:15;1.50;49.90
10231;DHT22;62604;49.432;8.680;2023-03-01T00:23:42;1.60;49.60
10231;DHT22;62604;49.432;8.680;2023-03-01T00:26:12;1.50;49.30
10231;DHT22;62604;49.432;8.680;2023-03-01T00:28:39;1.60;49.10
10231;DHT22;62604;49.432;8.680;2023-03-01T00:31:08;1.60;49.20
10231;DHT22;62604;49.432;8.680;2023-03-01T00:33:35;1.60;49.40
10231;DHT22;62604;49.432;8.680;2023-03-01T00:36:03;1.60;49.30
10231;DHT22;62604;49.432;8.680;2023-03-01T00:38:34;1.60;49.60
10231;DHT22;62604;49.432;8.680;2023-03-01T00:41:03;1.60;50.00
10231;DHT22;62604;49.432;8.680;2023-03-01T00:43:31;1.60;49.90
10231;DHT22;62604;49.432;8.680;2023-03-01T00:46:02;1.50;50.20
10231;DHT22;62604;49.432;8.680;2023-03-01T00:48:29;1.50;50.70
10231;DHT22;62604;49.432;8.680;2023-03-01T00:50:56;1.50;51.10
10231;DHT22;62604;49.432;8.680;2023-03-01T00:53:23;1.50;50.80
10231;DHT22;62604;49.432;8.680;2023-03-01T00:55:51;1.50;50.90
10231;DHT22;62604;49.432;8.680;2023-03-01T00:58:18;1.40;51.10
10231;DHT22;62604;49.432;8.680;2023-03-01T01:00:45;1.40;51.20
10231;DHT22;62604;49.432;8.680;2023-03-01T01:03:12;1.40;51.30
10231;DHT22;62604;49.432;8.680;2023-03-01T01:05:39;1.50;51.10
10231;DHT22;62604;49.432;8.680;2023-03-01T01:08:06;1.60;51.00
10231;DHT22;62604;49.432;8.680;2023-03-01T01:10:33;1.60;51.00
10231;DHT22;62604;49.432;8.680;2023-03-01T01:13:02;1.70;50.80
10231;DHT22;62604;49.432;8.680;2023-03-01T01:15:29;1.60;50.80
10231;DHT22;62604;49.432;8.680;2023-03-01T01:18:01;1.60;50.80
10231;DHT22;62604;49.432;8.680;2023-03-01T01:20:30;1.60;51.00
10231;DHT22;62604;49.432;8.680;2023-03-01T01:22:57;1.60;50.90
10231;DHT22;62604;49.432;8.680;2023-03-01T01:25:24;1.60;50.90
10231;DHT22;62604;49.432;8.680;2023-03-01T01:27:56;1.70;51.00
10231;DHT22;62604;49.432;8.680;2023-03-01T01:30:24;1.60;51.10
10231;DHT22;62604;49.432;8.680;2023-03-01T01:35:59;1.60;51.20
10231;DHT22;62604;49.432;8.680;2023-03-01T01:38:26;1.50;51.30
10231;DHT22;62604;49.432;8.680;2023-03-01T01:40:53;1.50;51.00
10231;DHT22;62604;49.432;8.680;2023-03-01T01:43:22;1.60;51.20
10231;DHT22;62604;49.432;8.680;2023-03-01T01:45:51;1.50;51.10
10231;DHT22;62604;49.432;8.680;2023-03-01T01:48:22;1.50;51.20
10231;DHT22;62604;49.432;8.680;2023-03-01T01:50:55;1.50;51.40
10231;DHT22;62604;49.432;8.680;2023-03-01T01:53:24;1.50;51.60
10231;DHT22;62604;49.432;8.680;2023-03-01T01:55:54;1.40;51.90
10231;DHT22;62604;49.432;8.680;2023-03-01T01:58:24;1.40;51.80
10231;DHT22;62604;49.432;8.680;2023-03-01T02:00:54;1.40;51.90
10231;DHT22;62604;49.432;8.680;2023-03-01T02:03:24;1.40;51.80
10231;DHT22;62604;49.432;8.680;2023-03-01T02:05:58;1.40;52.40
10231;DHT22;62604;49.432;8.680;2023-03-01T02:08:29;1.40;51.80
10231;DHT22;62604;49.432;8.680;2023-03-01T02:10:58;1.40;51.80
10231;DHT22;62604;49.432;8.680;2023-03-01T02:13:26;1.40;51.90
10231;DHT22;62604;49.432;8.680;2023-03-01T02:15:55;1.50;51.80
10231;DHT22;62604;49.432;8.680;2023-03-01T02:18:23;1.50;52.40
10231;DHT22;62604;49.432;8.680;2023-03-01T02:21:12;1.50;52.00
10231;DHT22;62604;49.432;8.680;2023-03-01T02:23:42;1.50;51.60
10231;DHT22;62604;49.432;8.680;2023-03-01T02:26:15;1.50;51.60
10231;DHT22;62604;49.432;8.680;2023-03-01T02:28:46;1.50;51.60
10231;DHT22;62604;49.432;8.680;2023-03-01T02:31:16;1.50;51.60
10231;DHT22;62604;49.432;8.680;2023-03-01T02:34:02;1.50;51.80
10231;DHT22;62604;49.432;8.680;2023-03-01T02:36:32;1.40;52.10
10231;DHT22;62604;49.432;8.680;2023-03-01T02:39:04;1.50;52.10
10231;DHT22;62604;49.432;8.680;2023-03-01T02:41:36;1.50;52.00
10231;DHT22;62604;49.432;8.680;2023-03-01T02:44:05;1.50;51.90
10231;DHT22;62604;49.432;8.680;2023-03-01T02:46:32;1.50;51.90
10231;DHT22;62604;49.432;8.680;2023-03-01T02:48:59;1.50;52.00
10231;DHT22;62604;49.432;8.680;2023-03-01T02:51:34;1.50;52.10
10231;DHT22;62604;49.432;8.680;2023-03-01T02:54:11;1.50;52.20
10231;DHT22;62604;49.432;8.680;2023-03-01T02:56:40;1.50;52.20
10231;DHT22;62604;49.432;8.680;2023-03-01T02:59:09;1.50;52.20
10231;DHT22;62604;49.432;8.680;2023-03-01T03:01:37;1.50;52.30
10231;DHT22;62604;49.432;8.680;2023-03-01T03:04:04;1.50;53.10
10231;DHT22;62604;49.432;8.680;2023-03-01T03:06:31;1.40;52.60
10231;DHT22;62604;49.432;8.680;2023-03-01T03:08:59;1.50;52.60
10231;DHT22;62604;49.432;8.680;2023-03-01T03:11:26;1.50;52.40
10231;DHT22;62604;49.432;8.680;2023-03-01T03:13:53;1.50;52.40
10231;DHT22;62604;49.432;8.680;2023-03-01T03:16:22;1.50;52.40
10231;DHT22;62604;49.432;8.680;2023-03-01T03:18:49;1.40;53.00
10231;DHT22;62604;49.432;8.680;2023-03-01T03:21:16;1.40;52.60
10231;DHT22;62604;49.432;8.680;2023-03-01T03:23:44;1.40;52.80
10231;DHT22;62604;49.432;8.680;2023-03-01T03:26:11;1.30;53.00
10231;DHT22;62604;49.432;8.680;2023-03-01T03:28:40;1.30;53.80
10231;DHT22;62604;49.432;8.680;2023-03-01T03:31:07;1.30;53.30
10231;DHT22;62604;49.432;8.680;2023-03-01T03:33:36;1.30;53.50
10231;DHT22;62604;49.432;8.680;2023-03-01T03:36:04;1.30;53.60
10231;DHT22;62604;49.432;8.680;2023-03-01T03:38:31;1.20;53.90
10231;DHT22;62604;49.432;8.680;2023-03-01T03:41:03;1.20;54.00
10231;DHT22;62604;49.432;8.680;2023-03-01T03:43:32;1.20;54.10
10231;DHT22;62604;49.432;8.680;2023-03-01T03:45:59;1.10;54.20
10231;DHT22;62604;49.432;8.680;2023-03-01T03:48:26;1.10;54.40
10231;DHT22;62604;49.432;8.680;2023-03-01T03:50:56;1.10;55.00
10231;DHT22;62604;49.432;8.680;2023-03-01T03:53:27;1.10;55.20
10231;DHT22;62604;49.432;8.680;2023-03-01T03:55:55;1.10;55.00
10231;DHT22;62604;49.432;8.680;2023-03-01T03:58:25;1.00;55.10
10231;DHT22;62604;49.432;8.680;2023-03-01T04:00:53;1.00;55.20
10231;DHT22;62604;49.432;8.680;2023-03-01T04:03:22;1.00;55.30
10231;DHT22;62604;49.432;8.680;2023-03-01T04:05:50;1.00;55.40
10231;DHT22;62604;49.432;8.680;2023-03-01T04:08:19;1.00;55.50
10231;DHT22;62604;49.432;8.680;2023-03-01T04:10:48;1.00;55.60
10231;DHT22;62604;49.432;8.680;2023-03-01T04:13:18;1.00;55.90
10231;DHT22;62604;49.432;8.680;2023-03-01T04:15:46;1.00;56.00
10231;DHT22;62604;49.432;8.680;2023-03-01T04:18:15;0.90;56.20
10231;DHT22;62604;49.432;8.680;2023-03-01T04:20:43;0.90;56.50
10231;DHT22;62604;49.432;8.680;2023-03-01T04:23:12;1.00;56.50
10231;DHT22;62604;49.432;8.680;2023-03-01T04:25:45;0.90;56.60
10231;DHT22;62604;49.432;8.680;2023-03-01T04:28:15;1.00;56.60
10231;DHT22;62604;49.432;8.680;2023-03-01T04:30:42;1.00;56.60
10231;DHT22;62604;49.432;8.680;2023-03-01T04:33:10;0.90;56.80
10231;DHT22;62604;49.432;8.680;2023-03-01T04:35:38;0.90;57.20
10231;DHT22;62604;49.432;8.680;2023-03-01T04:38:06;0.90;57.00
10231;DHT22;62604;49.432;8.680;2023-03-01T04:40:34;0.80;57.40
10231;DHT22;62604;49.432;8.680;2023-03-01T04:43:03;0.80;57.70
10231;DHT22;62604;49.432;8.680;2023-03-01T04:45:32;0.80;58.10
10231;DHT22;62604;49.432;8.680;2023-03-01T04:48:00;0.80;58.20
10231;DHT22;62604;49.432;8.680;2023-03-01T04:50:27;0.80;58.20
10231;DHT22;62604;49.432;8.680;2023-03-01T04:52:54;0.80;58.20
10231;DHT22;62604;49.432;8.680;2023-03-01T04:55:24;0.80;58.20
10231;DHT22;62604;49.432;8.680;2023-03-01T04:57:51;0.70;58.50
10231;DHT22;62604;49.432;8.680;2023-03-01T05:00:21;0.70;58.80
10231;DHT22;62604;49.432;8.680;2023-03-01T05:02:49;0.70;58.90
10231;DHT22;62604;49.432;8.680;2023-03-01T05:05:22;0.70;59.40
10231;DHT22;62604;49.432;8.680;2023-03-01T05:07:55;0.70;59.40
10231;DHT22;62604;49.432;8.680;2023-03-01T05:10:23;0.70;59.00
10231;DHT22;62604;49.432;8.680;2023-03-01T05:12:52;0.70;59.10
10231;DHT22;62604;49.432;8.680;2023-03-01T05:15:21;0.70;59.20
10231;DHT22;62604;49.432;8.680;2023-03-01T05:17:51;0.70;58.80
10231;DHT22;62604;49.432;8.680;2023-03-01T05:20:18;0.70;59.40
10231;DHT22;62604;49.432;8.680;2023-03-01T05:22:49;0.90;65.30
10231;DHT22;62604;49.432;8.680;2023-03-01T05:25:16;1.00;64.40
10231;DHT22;62604;49.432;8.680;2023-03-01T05:27:43;0.90;61.00
10231;DHT22;62604;49.432;8.680;2023-03-01T05:30:11;0.80;60.80
10231;DHT22;62604;49.432;8.680;2023-03-01T05:32:44;0.80;61.00
10231;DHT22;62604;49.432;8.680;2023-03-01T05:35:12;0.80;60.20
10231;DHT22;62604;49.432;8.680;2023-03-01T05:37:43;0.80;60.10
10231;DHT22;62604;49.432;8.680;2023-03-01T05:40:12;0.80;60.40
10231;DHT22;62604;49.432;8.680;2023-03-01T05:42:46;0.80;60.90
10231;DHT22;62604;49.432;8.680;2023-03-01T05:45:13;0.80;60.40
10231;DHT22;62604;49.432;8.680;2023-03-01T05:47:43;0.80;59.20
10231;DHT22;62604;49.432;8.680;2023-03-01T05:50:12;0.80;59.40
10231;DHT22;62604;49.432;8.680;2023-03-01T05:52:39;0.90;59.10
10231;DHT22;62604;49.432;8.680;2023-03-01T05:55:07;0.80;59.00
10231;DHT22;62604;49.432;8.680;2023-03-01T05:57:34;0.90;58.70
10231;DHT22;62604;49.432;8.680;2023-03-01T06:00:01;0.90;58.70
10231;DHT22;62604;49.432;8.680;2023-03-01T06:02:28;0.90;58.40
10231;DHT22;62604;49.432;8.680;2023-03-01T06:04:57;0.90;58.60
10231;DHT22;62604;49.432;8.680;2023-03-01T06:07:24;0.90;59.00
10231;DHT22;62604;49.432;8.680;2023-03-01T06:09:51;0.90;58.70
10231;DHT22;62604;49.432;8.680;2023-03-01T06:12:18;0.80;59.10
10231;DHT22;62604;49.432;8.680;2023-03-01T06:14:45;0.80;58.60
10231;DHT22;62604;49.432;8.680;2023-03-01T06:17:13;0.80;58.50
10231;DHT22;62604;49.432;8.680;2023-03-01T06:19:40;0.90;57.80
10231;DHT22;62604;49.432;8.680;2023-03-01T06:22:09;0.90;57.80
10231;DHT22;62604;49.432;8.680;2023-03-01T06:24:36;1.00;58.50
10231;DHT22;62604;49.432;8.680;2023-03-01T06:27:03;1.00;58.00
10231;DHT22;62604;49.432;8.680;2023-03-01T06:29:31;1.10;57.50
10231;DHT22;62604;49.432;8.680;2023-03-01T06:31:57;1.10;57.60
10231;DHT22;62604;49.432;8.680;2023-03-01T06:34:24;1.10;57.70
10231;DHT22;62604;49.432;8.680;2023-03-01T06:36:51;1.10;58.60
10231;DHT22;62604;49.432;8.680;2023-03-01T06:39:20;1.20;58.70
10231;DHT22;62604;49.432;8.680;2023-03-01T06:41:47;1.10;58.80
10231;DHT22;62604;49.432;8.680;2023-03-01T06:44:13;1.20;59.00
10231;DHT22;62604;49.432;8.680;2023-03-01T06:46:40;1.10;58.30
10231;DHT22;62604;49.432;8.680;2023-03-01T06:49:07;1.10;57.70
10231;DHT22;62604;49.432;8.680;2023-03-01T06:51:35;1.20;58.60
10231;DHT22;62604;49.432;8.680;2023-03-01T06:54:03;1.20;57.90
10231;DHT22;62604;49.432;8.680;2023-03-01T06:56:32;1.30;57.90
10231;DHT22;62604;49.432;8.680;2023-03-01T06:58:59;1.30;58.40
10231;DHT22;62604;49.432;8.680;2023-03-01T07:01:26;1.30;58.40
10231;DHT22;62604;49.432;8.680;2023-03-01T07:03:53;1.40;58.50
10231;DHT22;62604;49.432;8.680;2023-03-01T07:06:20;1.40;58.10
10231;DHT22;62604;49.432;8.680;2023-03-01T07:08:46;1.30;58.20
10231;DHT22;62604;49.432;8.680;2023-03-01T07:11:13;1.30;58.20
10231;DHT22;62604;49.432;8.680;2023-03-01T07:13:42;1.40;58.80
10231;DHT22;62604;49.432;8.680;2023-03-01T07:16:09;1.40;58.30
10231;DHT22;62604;49.432;8.680;2023-03-01T07:18:36;1.50;57.70
10231;DHT22;62604;49.432;8.680;2023-03-01T07:21:06;1.70;57.70
10231;DHT22;62604;49.432;8.680;2023-03-01T07:23:33;2.90;56.60
10231;DHT22;62604;49.432;8.680;2023-03-01T07:26:00;4.60;51.20
10231;DHT22;62604;49.432;8.680;2023-03-01T07:28:27;6.40;44.80
10231;DHT22;62604;49.432;8.680;2023-03-01T07:31:01;8.00;37.80
10231;DHT22;62604;49.432;8.680;2023-03-01T07:33:28;9.20;32.20
10231;DHT22;62604;49.432;8.680;2023-03-01T07:35:58;10.40;28.00
10231;DHT22;62604;49.432;8.680;2023-03-01T07:38:25;11.40;25.60
10231;DHT22;62604;49.432;8.680;2023-03-01T07:40:52;12.40;22.90
10231;DHT22;62604;49.432;8.680;2023-03-01T07:43:19;13.30;20.10
10231;DHT22;62604;49.432;8.680;2023-03-01T07:45:47;13.20;17.60
10231;DHT22;62604;49.432;8.680;2023-03-01T07:48:15;13.90;17.10
10231;DHT22;62604;49.432;8.680;2023-03-01T07:50:42;14.00;15.90
10231;DHT22;62604;49.432;8.680;2023-03-01T07:53:09;14.80;14.60
10231;DHT22;62604;49.432;8.680;2023-03-01T07:55:36;14.90;13.40
10231;DHT22;62604;49.432;8.680;2023-03-01T07:58:03;15.10;13.00
10231;DHT22;62604;49.432;8.680;2023-03-01T08:00:30;15.30;12.30
10231;DHT22;62604;49.432;8.680;2023-03-01T08:02:59;15.90;11.40
10231;DHT22;62604;49.432;8.680;2023-03-01T08:05:27;16.10;11.00
10231;DHT22;62604;49.432;8.680;2023-03-01T08:07:54;16.60;10.40
10231;DHT22;62604;49.432;8.680;2023-03-01T08:10:21;17.00;9.30
10231;DHT22;62604;49.432;8.680;2023-03-01T08:12:51;16.30;8.30
10231;DHT22;62604;49.432;8.680;2023-03-01T08:15:18;16.00;9.50
10231;DHT22;62604;49.432;8.680;2023-03-01T08:17:45;15.90;8.70
10231;DHT22;62604;49.432;8.680;2023-03-01T08:20:12;16.40;8.50
10231;DHT22;62604;49.432;8.680;2023-03-01T08:22:40;17.10;8.00
10231;DHT22;62604;49.432;8.680;2023-03-01T08:25:08;17.10;7.30
10231;DHT22;62604;49.432;8.680;2023-03-01T08:27:35;17.30;7.50
10231;DHT22;62604;49.432;8.680;2023-03-01T08:30:02;17.10;6.70
10231;DHT22;62604;49.432;8.680;2023-03-01T08:32:29;18.00;6.90
10231;DHT22;62604;49.432;8.680;2023-03-01T08:34:56;18.10;5.90
10231;DHT22;62604;49.432;8.680;2023-03-01T08:37:23;18.30;5.30
10231;DHT22;62604;49.432;8.680;2023-03-01T08:39:51;17.30;4.40
10231;DHT22;62604;49.432;8.680;2023-03-01T08:42:18;17.70;5.70
10231;DHT22;62604;49.432;8.680;2023-03-01T08:44:45;13.40;6.90
10231;DHT22;62604;49.432;8.680;2023-03-01T08:47:11;12.90;10.20
10231;DHT22;62604;49.432;8.680;2023-03-01T08:49:38;14.10;9.50
10231;DHT22;62604;49.432;8.680;2023-03-01T08:52:05;14.90;8.50
10231;DHT22;62604;49.432;8.680;2023-03-01T08:54:32;14.90;8.40
10231;DHT22;62604;49.432;8.680;2023-03-01T08:57:02;13.90;7.90
10231;DHT22;62604;49.432;8.680;2023-03-01T08:59:29;13.90;9.20
10231;DHT22;62604;49.432;8.680;2023-03-01T09:02:01;14.50;9.00
10231;DHT22;62604;49.432;8.680;2023-03-01T09:04:28;14.80;8.50
10231;DHT22;62604;49.432;8.680;2023-03-01T09:06:55;16.10;8.10
10231;DHT22;62604;49.432;8.680;2023-03-01T09:09:22;17.20;7.10
10231;DHT22;62604;49.432;8.680;2023-03-01T09:11:48;17.00;5.90
10231;DHT22;62604;49.432;8.680;2023-03-01T09:14:17;15.90;5.70
10231;DHT22;62604;49.432;8.680;2023-03-01T09:16:44;14.50;7.50
10231;DHT22;62604;49.432;8.680;2023-03-01T09:19:12;13.10;8.70
10231;DHT22;62604;49.432;8.680;2023-03-01T09:21:39;14.10;9.60
10231;DHT22;62604;49.432;8.680;2023-03-01T09:24:08;15.60;8.40
10231;DHT22;62604;49.432;8.680;2023-03-01T09:26:38;17.00;6.60
10231;DHT22;62604;49.432;8.680;2023-03-01T09:29:05;14.90;6.70
10231;DHT22;62604;49.432;8.680;2023-03-01T09:31:33;14.40;8.50
10231;DHT22;62604;49.432;8.680;2023-03-01T09:34:00;14.70;9.10
10231;DHT22;62604;49.432;8.680;2023-03-01T09:36:27;16.00;7.80
10231;DHT22;62604;49.432;8.680;2023-03-01T09:38:54;17.10;6.20
10231;DHT22;62604;49.432;8.680;2023-03-01T09:41:41;16.40;6.10
10231;DHT22;62604;49.432;8.680;2023-03-01T09:44:16;16.40;7.10
10231;DHT22;62604;49.432;8.680;2023-03-01T09:46:46;16.70;6.10
10231;DHT22;62604;49.432;8.680;2023-03-01T09:49:17;16.50;6.60
10231;DHT22;62604;49.432;8.680;2023-03-01T09:51:56;16.70;5.80
10231;DHT22;62604;49.432;8.680;2023-03-01T09:54:24;17.10;5.40
10231;DHT22;62604;49.432;8.680;2023-03-01T09:57:02;15.80;5.70
10231;DHT22;62604;49.432;8.680;2023-03-01T09:59:40;14.30;7.20
10231;DHT22;62604;49.432;8.680;2023-03-01T10:02:23;15.60;7.30
10231;DHT22;62604;49.432;8.680;2023-03-01T10:04:53;16.30;5.60
10231;DHT22;62604;49.432;8.680;2023-03-01T10:07:30;16.20;6.20
10231;DHT22;62604;49.432;8.680;2023-03-01T10:09:59;17.60;6.10
10231;DHT22;62604;49.432;8.680;2023-03-01T10:12:34;17.90;5.20
10231;DHT22;62604;49.432;8.680;2023-03-01T10:15:05;17.70;4.60
10231;DHT22;62604;49.432;8.680;2023-03-01T10:17:36;18.30;4.90
10231;DHT22;62604;49.432;8.680;2023-03-01T10:20:20;16.70;4.60
10231;DHT22;62604;49.432;8.680;2023-03-01T10:22:48;14.50;6.00
10231;DHT22;62604;49.432;8.680;2023-03-01T10:25:38;12.90;8.90
10231;DHT22;62604;49.432;8.680;2023-03-01T10:28:16;12.20;9.50
10231;DHT22;62604;49.432;8.680;2023-03-01T10:30:43;12.30;10.50
10231;DHT22;62604;49.432;8.680;2023-03-01T10:33:17;13.80;10.10
10231;DHT22;62604;49.432;8.680;2023-03-01T10:35:44;15.10;8.40
10231;DHT22;62604;49.432;8.680;2023-03-01T10:38:13;16.90;6.60
10231;DHT22;62604;49.432;8.680;2023-03-01T10:40:51;17.30;5.50
10231;DHT22;62604;49.432;8.680;2023-03-01T10:43:19;17.00;6.60
10231;DHT22;62604;49.432;8.680;2023-03-01T10:45:46;16.70;4.90
10231;DHT22;62604;49.432;8.680;2023-03-01T10:48:16;14.60;7.10
10231;DHT22;62604;49.432;8.680;2023-03-01T10:50:46;15.70;8.00
10231;DHT22;62604;49.432;8.680;2023-03-01T10:53:25;17.90;6.50
10231;DHT22;62604;49.432;8.680;2023-03-01T10:56:02;18.40;4.50
10231;DHT22;62604;49.432;8.680;2023-03-01T10:58:30;18.90;4.40
10231;DHT22;62604;49.432;8.680;2023-03-01T11:01:00;19.30;3.70
10231;DHT22;62604;49.432;8.680;2023-03-01T11:03:30;19.80;3.50
10231;DHT22;62604;49.432;8.680;2023-03-01T11:06:04;19.80;2.90
10231;DHT22;62604;49.432;8.680;2023-03-01T11:08:35;17.90;3.50
10231;DHT22;62604;49.432;8.680;2023-03-01T11:11:18;16.20;5.70
10231;DHT22;62604;49.432;8.680;2023-03-01T11:13:55;16.70;6.10
10231;DHT22;62604;49.432;8.680;2023-03-01T11:16:33;17.20;5.80
10231;DHT22;62604;49.432;8.680;2023-03-01T11:19:19;18.80;4.10
10231;DHT22;62604;49.432;8.680;2023-03-01T11:21:58;18.40;3.60
10231;DHT22;62604;49.432;8.680;2023-03-01T11:24:39;19.80;3.70
10231;DHT22;62604;49.432;8.680;2023-03-01T11:27:16;19.70;1.70
10231;DHT22;62604;49.432;8.680;2023-03-01T11:29:46;18.30;3.10
10231;DHT22;62604;49.432;8.680;2023-03-01T11:32:18;17.20;3.80
10231;DHT22;62604;49.432;8.680;2023-03-01T11:34:52;17.80;3.70
10231;DHT22;62604;49.432;8.680;2023-03-01T11:37:28;17.60;4.40
10231;DHT22;62604;49.432;8.680;2023-03-01T11:40:03;19.70;4.20
10231;DHT22;62604;49.432;8.680;2023-03-01T11:42:43;19.50;3.50
10231;DHT22;62604;49.432;8.680;2023-03-01T11:45:13;19.10;4.50
10231;DHT22;62604;49.432;8.680;2023-03-01T11:48:04;20.30;3.50
10231;DHT22;62604;49.432;8.680;2023-03-01T11:50:39;19.30;3.50
10231;DHT22;62604;49.432;8.680;2023-03-01T11:53:30;20.70;3.60
10231;DHT22;62604;49.432;8.680;2023-03-01T11:56:05;21.40;2.30
10231;DHT22;62604;49.432;8.680;2023-03-01T11:58:57;21.40;1.90
10231;DHT22;62604;49.432;8.680;2023-03-01T12:01:47;22.00;1.20
10231;DHT22;62604;49.432;8.680;2023-03-01T12:04:49;20.50;2.00
10231;DHT22;62604;49.432;8.680;2023-03-01T12:07:24;21.70;1.60
10231;DHT22;62604;49.432;8.680;2023-03-01T12:10:07;22.20;1.50
10231;DHT22;62604;49.432;8.680;2023-03-01T12:12:51;22.20;1.00
10231;DHT22;62604;49.432;8.680;2023-03-01T12:15:43;22.00;1.00
10231;DHT22;62604;49.432;8.680;2023-03-01T12:21:14;18.60;1.40
10231;DHT22;62604;49.432;8.680;2023-03-01T12:24:01;16.80;4.10
10231;DHT22;62604;49.432;8.680;2023-03-01T12:26:33;17.70;3.70
10231;DHT22;62604;49.432;8.680;2023-03-01T12:29:19;18.30;3.30
10231;DHT22;62604;49.432;8.680;2023-03-01T12:32:15;17.60;3.30
10231;DHT22;62604;49.432;8.680;2023-03-01T12:35:02;16.90;4.40
10231;DHT22;62604;49.432;8.680;2023-03-01T12:37:42;18.50;4.20
10231;DHT22;62604;49.432;8.680;2023-03-01T12:43:25;16.50;3.50
10231;DHT22;62604;49.432;8.680;2023-03-01T12:46:05;16.80;5.20
10231;DHT22;62604;49.432;8.680;2023-03-01T12:48:43;18.00;4.90
10231;DHT22;62604;49.432;8.680;2023-03-01T12:51:15;17.30;5.90
10231;DHT22;62604;49.432;8.680;2023-03-01T12:53:46;17.10;5.80
10231;DHT22;62604;49.432;8.680;2023-03-01T12:56:18;16.30;5.80
10231;DHT22;62604;49.432;8.680;2023-03-01T12:58:53;16.40;5.50
10231;DHT22;62604;49.432;8.680;2023-03-01T13:01:31;17.10;5.90
10231;DHT22;62604;49.432;8.680;2023-03-01T13:07:16;16.20;5.20
10231;DHT22;62604;49.432;8.680;2023-03-01T13:09:51;17.00;5.40
10231;DHT22;62604;49.432;8.680;2023-03-01T13:12:49;17.90;4.10
10231;DHT22;62604;49.432;8.680;2023-03-01T13:15:28;15.60;5.60
10231;DHT22;62604;49.432;8.680;2023-03-01T13:17:56;16.20;6.00
10231;DHT22;62604;49.432;8.680;2023-03-01T13:20:27;15.80;5.80
10231;DHT22;62604;49.432;8.680;2023-03-01T13:23:05;16.40;5.20
10231;DHT22;62604;49.432;8.680;2023-03-01T13:25:32;15.60;5.40
10231;DHT22;62604;49.432;8.680;2023-03-01T13:28:39;14.50;6.70
10231;DHT22;62604;49.432;8.680;2023-03-01T13:31:08;14.20;8.10
10231;DHT22;62604;49.432;8.680;2023-03-01T13:33:44;14.40;7.90
10231;DHT22;62604;49.432;8.680;2023-03-01T13:36:45;13.20;8.50
10231;DHT22;62604;49.432;8.680;2023-03-01T13:39:27;13.40;8.90
10231;DHT22;62604;49.432;8.680;2023-03-01T13:41:56;12.70;9.60
10231;DHT22;62604;49.432;8.680;2023-03-01T13:44:30;13.00;10.10
10231;DHT22;62604;49.432;8.680;2023-03-01T13:47:03;13.30;9.60
10231;DHT22;62604;49.432;8.680;2023-03-01T13:49:36;14.30;8.60
10231;DHT22;62604;49.432;8.680;2023-03-01T13:52:28;13.80;8.20
10231;DHT22;62604;49.432;8.680;2023-03-01T13:54:57;13.80;8.40
10231;DHT22;62604;49.432;8.680;2023-03-01T13:57:29;12.00;9.80
10231;DHT22;62604;49.432;8.680;2023-03-01T14:00:00;11.00;11.40
10231;DHT22;62604;49.432;8.680;2023-03-01T14:02:27;10.40;12.50
10231;DHT22;62604;49.432;8.680;2023-03-01T14:04:57;10.60;12.80
10231;DHT22;62604;49.432;8.680;2023-03-01T14:07:26;10.70;12.80
10231;DHT22;62604;49.432;8.680;2023-03-01T14:09:56;10.40;13.10
10231;DHT22;62604;49.432;8.680;2023-03-01T14:12:33;10.40;13.80
10231;DHT22;62604;49.432;8.680;2023-03-01T14:15:09;10.20;13.50
10231;DHT22;62604;49.432;8.680;2023-03-01T14:17:49;10.00;14.30
10231;DHT22;62604;49.432;8.680;2023-03-01T14:20:21;9.70;14.70
10231;DHT22;62604;49.432;8.680;2023-03-01T14:22:50;9.90;14.90
10231;DHT22;62604;49.432;8.680;2023-03-01T14:25:23;9.90;15.30
10231;DHT22;62604;49.432;8.680;2023-03-01T14:28:00;10.20;14.50
10231;DHT22;62604;49.432;8.680;2023-03-01T14:30:34;10.30;15.20
10231;DHT22;62604;49.432;8.680;2023-03-01T14:33:03;10.20;14.50
10231;DHT22;62604;49.432;8.680;2023-03-01T14:37:29;10.60;14.40
10231;DHT22;62604;49.432;8.680;2023-03-01T14:40:02;10.50;14.30
10231;DHT22;62604;49.432;8.680;2023-03-01T14:42:33;10.70;14.50
10231;DHT22;62604;49.432;8.680;2023-03-01T14:45:03;10.90;14.00
10231;DHT22;62604;49.432;8.680;2023-03-01T14:47:47;10.70;13.70
10231;DHT22;62604;49.432;8.680;2023-03-01T14:50:22;10.50;13.80
10231;DHT22;62604;49.432;8.680;2023-03-01T14:52:54;10.20;14.00
10231;DHT22;62604;49.432;8.680;2023-03-01T14:55:31;9.80;15.40
10231;DHT22;62604;49.432;8.680;2023-03-01T14:58:03;9.70;15.70
10231;DHT22;62604;49.432;8.680;2023-03-01T15:00:33;9.80;15.80
10231;DHT22;62604;49.432;8.680;2023-03-01T15:03:08;9.80;15.80
10231;DHT22;62604;49.432;8.680;2023-03-01T15:05:41;9.80;15.80
10231;DHT22;62604;49.432;8.680;2023-03-01T15:08:21;10.00;15.00
10231;DHT22;62604;49.432;8.680;2023-03-01T15:11:19;9.90;15.80
10231;DHT22;62604;49.432;8.680;2023-03-01T15:13:50;9.90;15.70
10231;DHT22;62604;49.432;8.680;2023-03-01T15:16:20;9.70;15.80
10231;DHT22;62604;49.432;8.680;2023-03-01T15:18:50;9.70;16.00
10231;DHT22;62604;49.432;8.680;2023-03-01T15:21:21;9.80;16.00
10231;DHT22;62604;49.432;8.680;2023-03-01T15:23:54;9.70;15.70
10231;DHT22;62604;49.432;8.680;2023-03-01T15:26:28;9.80;16.00
10231;DHT22;62604;49.432;8.680;2023-03-01T15:28:58;9.90;16.10
10231;DHT22;62604;49.432;8.680;2023-03-01T15:31:37;9.90;16.10
10231;DHT22;62604;49.432;8.680;2023-03-01T15:34:22;9.70;15.90
10231;DHT22;62604;49.432;8.680;2023-03-01T15:36:55;10.00;15.00
10231;DHT22;62604;49.432;8.680;2023-03-01T15:39:35;10.30;14.80
10231;DHT22;62604;49.432;8.680;2023-03-01T15:42:10;10.20;14.60
10231;DHT22;62604;49.432;8.680;2023-03-01T15:44:42;9.80;15.50
10231;DHT22;62604;49.432;8.680;2023-03-01T15:47:26;9.70;16.10
10231;DHT22;62604;49.432;8.680;2023-03-01T15:49:57;9.60;16.20
10231;DHT22;62604;49.432;8.680;2023-03-01T15:52:28;9.60;16.20
10231;DHT22;62604;49.432;8.680;2023-03-01T15:55:00;9.50;16.50
10231;DHT22;62604;49.432;8.680;2023-03-01T15:57:29;9.40;16.50
10231;DHT22;62604;49.432;8.680;2023-03-01T15:59:56;9.40;16.70
10231;DHT22;62604;49.432;8.680;2023-03-01T16:02:24;9.30;16.80
10231;DHT22;62604;49.432;8.680;2023-03-01T16:04:51;9.10;17.00
10231;DHT22;62604;49.432;8.680;2023-03-01T16:07:19;9.10;17.10
10231;DHT22;62604;49.432;8.680;2023-03-01T16:10:02;9.10;17.40
10231;DHT22;62604;49.432;8.680;2023-03-01T16:12:30;9.10;17.40
10231;DHT22;62604;49.432;8.680;2023-03-01T16:14:58;9.10;17.80
10231;DHT22;62604;49.432;8.680;2023-03-01T16:17:26;9.00;17.90
10231;DHT22;62604;49.432;8.680;2023-03-01T16:19:53;9.00;18.00
10231;DHT22;62604;49.432;8.680;2023-03-01T16:22:21;8.90;17.90
10231;DHT22;62604;49.432;8.680;2023-03-01T16:24:50;8.90;18.20